createdAt,value
2023-08-30T00:01:26.391Z,11.03
2023-08-30T00:02:58.736Z,13.00
2023-08-30T00:04:30.535Z,11.23
2023-08-30T00:06:06.348Z,11.90
2023-08-30T00:07:38.363Z,14.73
2023-08-30T00:09:10.152Z,10.53
2023-08-30T00:10:43.858Z,13.00
2023-08-30T00:12:15.626Z,12.47
2023-08-30T00:13:48.966Z,11.70
2023-08-30T00:15:20.787Z,11.40
2023-08-30T00:16:52.571Z,11.90
2023-08-30T00:18:24.850Z,11.83
2023-08-30T00:19:56.805Z,10.83
2023-08-30T00:21:29.106Z,9.37
2023-08-30T00:23:00.842Z,10.67
2023-08-30T00:24:32.641Z,10.37
2023-08-30T00:26:04.373Z,10.57
2023-08-30T00:27:36.073Z,13.37
2023-08-30T00:29:07.808Z,9.77
2023-08-30T00:30:39.723Z,12.10
2023-08-30T00:32:12.752Z,9.50
2023-08-30T00:33:45.035Z,16.13
2023-08-30T00:35:17.934Z,12.47
2023-08-30T00:36:49.805Z,10.80
2023-08-30T00:38:21.561Z,9.87
2023-08-30T00:39:53.334Z,9.83
2023-08-30T00:41:25.531Z,16.13
2023-08-30T00:42:57.891Z,9.40
2023-08-30T00:44:29.777Z,9.60
2023-08-30T00:46:01.720Z,14.70
2023-08-30T00:47:33.836Z,13.80
2023-08-30T00:49:06.132Z,10.27
2023-08-30T00:50:38.274Z,10.73
2023-08-30T00:52:11.501Z,17.57
2023-08-30T00:53:44.245Z,10.60
2023-08-30T00:55:16.406Z,10.53
2023-08-30T00:56:48.404Z,17.53
2023-08-30T00:58:20.301Z,9.83
2023-08-30T00:59:54.120Z,11.67
2023-08-30T01:01:27.492Z,11.63
2023-08-30T01:02:59.731Z,9.60
2023-08-30T01:04:33.606Z,10.13
2023-08-30T01:06:05.401Z,12.30
2023-08-30T01:07:37.252Z,11.40
2023-08-30T01:09:10.245Z,9.90
2023-08-30T01:11:08.379Z,10.80
2023-08-30T01:12:50.605Z,12.27
2023-08-30T01:14:27.640Z,11.17
2023-08-30T01:16:01.033Z,8.83
2023-08-30T01:17:34.354Z,10.00
2023-08-30T01:19:44.314Z,11.30
2023-08-30T01:21:38.908Z,12.93
2023-08-30T01:23:36.886Z,16.40
2023-08-30T01:25:16.366Z,10.43
2023-08-30T01:27:11.231Z,10.93
2023-08-30T01:28:43.031Z,8.47
2023-08-30T01:30:16.969Z,15.23
2023-08-30T01:31:49.926Z,9.60
2023-08-30T01:33:22.531Z,11.83
2023-08-30T01:34:54.815Z,10.83
2023-08-30T01:36:27.466Z,12.77
2023-08-30T01:38:01.124Z,15.00
2023-08-30T01:39:33.410Z,11.20
2023-08-30T01:41:05.539Z,13.13
2023-08-30T01:42:38.106Z,13.23
2023-08-30T01:44:11.040Z,12.43
2023-08-30T01:45:44.559Z,11.30
2023-08-30T01:47:17.444Z,13.20
2023-08-30T01:48:50.538Z,11.90
2023-08-30T01:50:22.803Z,13.70
2023-08-30T01:51:55.366Z,14.67
2023-08-30T01:53:29.029Z,12.17
2023-08-30T01:55:01.598Z,13.43
2023-08-30T01:56:33.870Z,13.17
2023-08-30T01:58:06.739Z,15.03
2023-08-30T01:59:39.013Z,12.33
2023-08-30T02:01:11.262Z,11.40
2023-08-30T02:02:43.170Z,14.10
2023-08-30T02:04:15.186Z,12.80
2023-08-30T02:06:12.526Z,13.93
2023-08-30T02:07:59.106Z,13.13
2023-08-30T02:09:40.996Z,16.20
2023-08-30T02:11:23.139Z,11.93
2023-08-30T02:12:56.916Z,14.40
2023-08-30T02:14:29.359Z,15.63
2023-08-30T02:16:03.138Z,12.20
2023-08-30T02:17:38.291Z,12.43
2023-08-30T02:19:10.527Z,12.67
2023-08-30T02:20:42.290Z,13.87
2023-08-30T02:22:14.148Z,14.80
2023-08-30T02:23:51.936Z,15.70
2023-08-30T02:25:25.182Z,13.37
2023-08-30T02:26:57.228Z,13.70
2023-08-30T02:28:29.003Z,15.40
2023-08-30T02:30:00.840Z,19.43
2023-08-30T02:31:32.786Z,12.47
2023-08-30T02:33:05.098Z,15.00
2023-08-30T02:34:36.949Z,15.90
2023-08-30T02:36:09.287Z,11.60
2023-08-30T02:37:42.911Z,17.13
2023-08-30T02:39:17.466Z,19.13
2023-08-30T02:40:49.277Z,15.60
2023-08-30T02:42:22.074Z,14.80
2023-08-30T02:43:53.810Z,14.47
2023-08-30T02:45:25.608Z,14.80
2023-08-30T02:46:57.534Z,14.30
2023-08-30T02:48:29.283Z,12.70
2023-08-30T02:50:01.129Z,15.50
2023-08-30T02:51:33.206Z,17.37
2023-08-30T02:53:05.137Z,12.67
2023-08-30T02:54:37.009Z,11.80
2023-08-30T02:56:08.745Z,14.83
2023-08-30T02:57:40.566Z,17.23
2023-08-30T02:59:13.048Z,16.93
2023-08-30T03:00:45.050Z,13.97
2023-08-30T03:02:16.864Z,11.73
2023-08-30T03:03:48.895Z,14.50
2023-08-30T03:05:22.908Z,22.40
2023-08-30T03:06:55.808Z,13.43
2023-08-30T03:08:29.059Z,12.03
2023-08-30T03:10:01.091Z,14.13
2023-08-30T03:11:32.944Z,16.90
2023-08-30T03:13:05.037Z,16.40
2023-08-30T03:14:37.584Z,13.83
2023-08-30T03:16:12.933Z,14.73
2023-08-30T03:17:44.816Z,13.13
2023-08-30T03:19:18.491Z,16.93
2023-08-30T03:21:01.407Z,12.07
2023-08-30T03:22:33.440Z,14.93
2023-08-30T03:24:05.778Z,12.53
2023-08-30T03:25:37.759Z,17.17
2023-08-30T03:27:10.999Z,17.57
2023-08-30T03:28:44.544Z,21.30
2023-08-30T03:30:16.617Z,20.53
2023-08-30T03:31:48.918Z,19.23
2023-08-30T03:33:20.755Z,12.97
2023-08-30T03:34:52.500Z,17.20
2023-08-30T03:36:24.279Z,13.60
2023-08-30T03:37:56.030Z,16.60
2023-08-30T03:39:29.230Z,12.73
2023-08-30T03:41:00.956Z,12.10
2023-08-30T03:42:32.854Z,10.33
2023-08-30T03:44:05.219Z,12.37
2023-08-30T03:45:37.757Z,12.40
2023-08-30T03:47:09.593Z,12.67
2023-08-30T03:48:41.419Z,10.03
2023-08-30T03:50:13.228Z,17.40
2023-08-30T03:51:45.871Z,12.30
2023-08-30T03:53:17.715Z,13.00
2023-08-30T03:54:49.559Z,13.93
2023-08-30T03:56:21.312Z,16.20
2023-08-30T03:57:53.087Z,13.63
2023-08-30T03:59:28.265Z,16.50
2023-08-30T04:01:00.423Z,16.83
2023-08-30T04:02:32.313Z,12.73
2023-08-30T04:04:04.846Z,12.53
2023-08-30T04:05:37.849Z,15.77
2023-08-30T04:07:09.686Z,15.67
2023-08-30T04:08:41.576Z,16.27
2023-08-30T04:10:13.333Z,10.93
2023-08-30T04:11:46.363Z,12.13
2023-08-30T04:13:18.188Z,12.27
2023-08-30T04:14:50.017Z,15.53
2023-08-30T04:16:21.867Z,15.47
2023-08-30T04:17:53.721Z,14.93
2023-08-30T04:19:29.531Z,15.07
2023-08-30T04:21:04.287Z,16.20
2023-08-30T04:22:36.260Z,15.17
2023-08-30T04:24:08.319Z,14.43
2023-08-30T04:25:43.798Z,13.63
2023-08-30T04:27:16.140Z,18.10
2023-08-30T04:28:48.434Z,12.20
2023-08-30T04:30:20.426Z,15.87
2023-08-30T04:31:52.294Z,19.73
2023-08-30T04:33:27.910Z,18.67
2023-08-30T04:35:05.587Z,16.50
2023-08-30T04:36:39.927Z,15.37
2023-08-30T04:38:12.645Z,13.27
2023-08-30T04:39:48.966Z,16.60
2023-08-30T04:41:20.775Z,14.40
2023-08-30T04:42:52.686Z,14.30
2023-08-30T04:44:26.075Z,14.93
2023-08-30T04:46:00.969Z,15.40
2023-08-30T04:47:40.603Z,17.10
2023-08-30T04:49:12.507Z,15.80
2023-08-30T04:50:44.449Z,15.00
2023-08-30T04:52:16.434Z,13.30
2023-08-30T04:53:55.551Z,17.77
2023-08-30T04:55:30.112Z,15.00
2023-08-30T04:57:04.697Z,14.30
2023-08-30T04:58:39.567Z,13.93
2023-08-30T05:00:19.972Z,14.57
2023-08-30T05:05:13.356Z,15.70
2023-08-30T05:08:10.261Z,18.00
2023-08-30T05:10:12.236Z,17.73
2023-08-30T05:12:48.686Z,15.77
2023-08-30T05:23:50.056Z,14.13
2023-08-30T05:25:22.334Z,16.33
2023-08-30T05:26:54.478Z,15.50
2023-08-30T05:28:28.331Z,16.33
2023-08-30T05:30:04.600Z,17.00
2023-08-30T05:31:38.444Z,15.60
2023-08-30T05:33:45.507Z,17.23
2023-08-30T05:35:40.719Z,15.73
2023-08-30T05:40:54.553Z,15.70
2023-08-30T05:52:29.116Z,27.87
2023-08-30T06:02:02.474Z,17.13
2023-08-30T06:07:43.013Z,20.93
2023-08-30T06:09:14.809Z,17.00
2023-08-30T06:10:46.567Z,17.93
2023-08-30T06:12:18.389Z,18.50
2023-08-30T06:13:50.228Z,27.00
2023-08-30T06:15:22.040Z,20.90
2023-08-30T06:16:53.965Z,17.50
2023-08-30T06:18:25.804Z,20.77
2023-08-30T06:19:57.540Z,18.27
2023-08-30T06:21:29.344Z,16.67
2023-08-30T06:23:04.501Z,17.33
2023-08-30T06:24:36.269Z,16.20
2023-08-30T06:26:08.112Z,16.10
2023-08-30T06:27:44.259Z,19.43
2023-08-30T06:29:16.114Z,13.43
2023-08-30T06:30:47.890Z,16.10
2023-08-30T06:32:19.765Z,15.93
2023-08-30T06:33:51.930Z,18.80
2023-08-30T06:35:24.211Z,15.13
2023-08-30T06:36:55.990Z,17.17
2023-08-30T06:38:27.810Z,17.47
2023-08-30T06:39:59.566Z,15.30
2023-08-30T06:41:31.348Z,15.13
2023-08-30T06:43:03.563Z,14.20
2023-08-30T06:44:35.332Z,17.23
2023-08-30T06:46:07.240Z,13.47
2023-08-30T06:47:39.021Z,12.83
2023-08-30T06:49:10.854Z,15.57
2023-08-30T06:50:42.618Z,13.53
2023-08-30T06:52:14.391Z,16.60
2023-08-30T06:53:47.171Z,14.70
2023-08-30T06:55:18.936Z,14.67
2023-08-30T06:57:01.259Z,13.63
2023-08-30T06:58:33.082Z,14.20
2023-08-30T07:00:08.929Z,14.33
2023-08-30T07:01:40.656Z,11.23
2023-08-30T07:03:12.473Z,13.00
2023-08-30T07:04:44.302Z,11.60
2023-08-30T07:06:16.070Z,11.10
2023-08-30T07:07:47.801Z,10.63
2023-08-30T07:09:21.584Z,11.07
2023-08-30T07:10:54.938Z,13.03
2023-08-30T07:12:26.867Z,14.53
2023-08-30T07:13:58.793Z,11.80
2023-08-30T07:15:30.549Z,12.70
2023-08-30T07:17:02.490Z,12.03
2023-08-30T07:18:35.688Z,12.43
2023-08-30T07:20:09.604Z,15.40
2023-08-30T07:21:41.474Z,10.63
2023-08-30T07:23:13.269Z,12.63
2023-08-30T07:24:46.317Z,11.00
2023-08-30T07:26:18.147Z,11.23
2023-08-30T07:27:49.869Z,14.10
2023-08-30T07:29:24.123Z,16.27
2023-08-30T07:31:03.774Z,12.30
2023-08-30T07:32:37.175Z,14.07
2023-08-30T07:34:09.229Z,13.67
2023-08-30T07:35:41.510Z,14.13
2023-08-30T07:37:23.290Z,10.27
2023-08-30T07:38:55.262Z,18.50
2023-08-30T07:40:29.376Z,12.47
2023-08-30T07:42:01.145Z,12.83
2023-08-30T07:43:32.931Z,9.60
2023-08-30T07:45:05.477Z,10.00
2023-08-30T07:46:37.276Z,9.37
2023-08-30T07:48:09.108Z,9.20
2023-08-30T07:49:41.643Z,10.83
2023-08-30T07:51:13.386Z,9.70
2023-08-30T07:52:49.265Z,10.27
2023-08-30T07:54:21.034Z,9.77
2023-08-30T07:55:55.447Z,12.00
2023-08-30T07:57:27.416Z,13.70
2023-08-30T07:59:02.138Z,8.17
2023-08-30T08:00:33.900Z,10.60
2023-08-30T08:02:08.630Z,8.00
2023-08-30T08:03:48.656Z,7.63
2023-08-30T08:05:28.050Z,10.63
2023-08-30T08:07:02.452Z,10.27
2023-08-30T08:08:34.618Z,14.60
2023-08-30T08:10:06.995Z,11.70
2023-08-30T08:11:40.835Z,7.60
2023-08-30T08:13:14.362Z,8.37
2023-08-30T08:14:46.486Z,7.70
2023-08-30T08:16:18.538Z,9.70
2023-08-30T08:17:50.824Z,6.37
2023-08-30T08:19:25.777Z,9.63
2023-08-30T08:21:00.980Z,8.97
2023-08-30T08:22:32.852Z,7.77
2023-08-30T08:24:04.737Z,6.23
2023-08-30T08:25:36.546Z,9.87
2023-08-30T08:27:08.313Z,6.80
2023-08-30T08:28:40.040Z,8.03
2023-08-30T08:30:12.283Z,6.60
2023-08-30T08:31:44.037Z,6.40
2023-08-30T08:33:16.684Z,13.30
2023-08-30T08:34:53.229Z,9.07
2023-08-30T08:36:34.923Z,8.60
2023-08-30T08:38:07.278Z,9.80
2023-08-30T08:42:17.409Z,11.33
2023-08-30T08:44:31.114Z,10.47
2023-08-30T08:46:32.579Z,6.80
2023-08-30T08:48:15.354Z,8.97
2023-08-30T08:54:07.438Z,8.20
2023-08-30T08:55:45.849Z,7.70
2023-08-30T08:57:25.420Z,11.33
2023-08-30T08:59:22.166Z,11.70
2023-08-30T09:01:18.397Z,8.70
2023-08-30T09:03:13.301Z,7.83
2023-08-30T09:04:47.518Z,10.83
2023-08-30T09:06:20.070Z,11.17
2023-08-30T09:07:54.666Z,15.83
2023-08-30T09:09:29.739Z,11.40
2023-08-30T09:11:09.091Z,9.23
2023-08-30T09:12:48.646Z,10.50
2023-08-30T09:14:20.707Z,8.17
2023-08-30T09:15:55.154Z,8.20
2023-08-30T09:17:40.028Z,10.27
2023-08-30T09:19:12.090Z,8.50
2023-08-30T09:21:21.662Z,12.83
2023-08-30T09:59:34.774Z,15.80
2023-08-30T13:09:11.684Z,4.00
2023-08-30T13:10:44.923Z,3.00
2023-08-30T13:12:19.455Z,3.57
2023-08-30T13:14:38.572Z,3.50
2023-08-30T13:16:13.166Z,3.30
2023-08-30T13:17:45.501Z,3.60
2023-08-30T13:19:17.586Z,3.23
2023-08-30T13:20:49.657Z,5.73
2023-08-30T13:22:21.550Z,2.90
2023-08-30T13:23:55.931Z,4.70
2023-08-30T13:25:39.039Z,5.43
2023-08-30T13:27:13.471Z,5.10
2023-08-30T13:29:28.877Z,4.23
2023-08-30T13:31:16.351Z,3.60
2023-08-30T13:32:48.346Z,3.70
2023-08-30T13:36:43.174Z,3.47
2023-08-30T13:38:18.996Z,3.37
2023-08-30T13:40:09.068Z,3.80
2023-08-30T13:42:18.841Z,5.10
2023-08-30T13:43:53.855Z,3.77
2023-08-30T13:45:28.961Z,3.77
2023-08-30T13:47:04.317Z,3.73
2023-08-30T13:48:49.132Z,4.17
2023-08-30T13:50:47.837Z,5.80
2023-08-30T13:52:21.167Z,4.27
2023-08-30T13:53:54.136Z,5.00
2023-08-30T13:55:26.605Z,4.30
2023-08-30T13:56:59.455Z,6.37
2023-08-30T13:58:44.628Z,4.87
2023-08-30T14:00:19.934Z,5.23
2023-08-30T14:01:55.601Z,4.63
2023-08-30T14:03:27.918Z,5.17
2023-08-30T14:04:59.962Z,4.80
2023-08-30T14:08:38.906Z,5.50
2023-08-30T14:10:13.336Z,7.13
2023-08-30T14:11:45.536Z,5.90
2023-08-30T14:13:17.716Z,6.23
2023-08-30T14:14:49.757Z,6.80
2023-08-30T14:16:27.624Z,5.83
2023-08-30T14:17:59.603Z,5.33
2023-08-30T14:21:32.955Z,6.40
2023-08-30T14:25:47.464Z,5.00
2023-08-30T14:27:19.311Z,6.83
2023-08-30T14:28:52.793Z,5.00
2023-08-30T14:30:25.016Z,6.60
2023-08-30T14:31:57.040Z,5.33
2023-08-30T14:33:29.083Z,6.50
2023-08-30T14:35:16.253Z,7.30
2023-08-30T14:36:53.269Z,5.50
2023-08-30T14:38:25.137Z,5.90
2023-08-30T14:39:59.661Z,5.17
2023-08-30T14:41:33.324Z,5.50
2023-08-30T14:43:05.809Z,6.00
2023-08-30T14:44:37.868Z,5.77
2023-08-30T14:46:13.615Z,6.43
2023-08-30T14:47:47.480Z,5.73
2023-08-30T14:49:19.642Z,5.97
2023-08-30T14:50:52.333Z,5.43
2023-08-30T14:52:26.986Z,4.70
2023-08-30T14:53:58.879Z,4.90
2023-08-30T14:55:31.166Z,5.77
2023-08-30T14:57:06.186Z,5.30
2023-08-30T14:58:52.803Z,5.83
2023-08-30T15:00:28.460Z,6.20
2023-08-30T15:02:15.467Z,5.27
2023-08-30T15:04:38.224Z,6.60
2023-08-30T15:06:06.853Z,6.20
2023-08-30T15:07:55.569Z,4.50
2023-08-30T15:09:27.615Z,5.03
2023-08-30T15:10:59.812Z,8.63
2023-08-30T15:12:31.793Z,5.90
2023-08-30T15:14:04.503Z,8.10
2023-08-30T15:15:36.415Z,6.60
2023-08-30T15:17:08.848Z,5.03
2023-08-30T15:18:40.871Z,6.70
2023-08-30T15:20:12.773Z,5.37
2023-08-30T15:21:47.224Z,11.23
2023-08-30T15:23:19.388Z,6.80
2023-08-30T15:25:00.156Z,5.60
2023-08-30T15:26:32.240Z,6.17
2023-08-30T15:28:04.980Z,6.30
2023-08-30T15:29:36.928Z,6.23
2023-08-30T15:31:08.815Z,6.00
2023-08-30T15:32:44.221Z,5.50
2023-08-30T15:34:16.649Z,4.80
2023-08-30T15:35:56.569Z,6.17
2023-08-30T15:37:43.485Z,4.93
2023-08-30T15:39:21.359Z,10.53
2023-08-30T15:40:58.933Z,5.77
2023-08-30T15:42:36.914Z,7.50
2023-08-30T15:44:08.896Z,4.43
2023-08-30T15:45:43.540Z,5.83
2023-08-30T15:48:35.338Z,6.53
2023-08-30T15:50:33.568Z,12.20
2023-08-30T16:01:41.614Z,10.00
2023-08-30T16:03:13.914Z,5.33
2023-08-30T16:04:45.919Z,4.77
2023-08-30T16:06:17.788Z,8.17
2023-08-30T16:07:52.065Z,7.57
2023-08-30T16:09:24.074Z,5.60
2023-08-30T16:10:56.935Z,4.23
2023-08-30T16:12:31.865Z,7.90
2023-08-30T16:14:03.845Z,5.13
2023-08-30T16:15:35.735Z,8.47
2023-08-30T16:17:07.893Z,12.40
2023-08-30T16:18:39.887Z,6.30
2023-08-30T16:21:47.455Z,5.67
2023-08-30T16:23:16.780Z,3.33
2023-08-30T16:25:52.373Z,3.50
2023-08-30T16:27:34.502Z,5.53
2023-08-30T16:29:07.772Z,6.80
2023-08-30T16:30:39.734Z,3.53
2023-08-30T16:32:11.622Z,4.17
2023-08-30T16:34:00.964Z,3.10
2023-08-30T16:35:46.941Z,6.60
2023-08-30T16:50:17.881Z,6.97
2023-08-30T16:51:49.697Z,4.03
2023-08-30T16:53:21.539Z,5.60
2023-08-30T16:54:53.331Z,3.70
2023-08-30T16:56:25.176Z,8.63
2023-08-30T16:57:58.240Z,5.07
2023-08-30T16:59:30.178Z,9.33
2023-08-30T17:01:02.034Z,5.37
2023-08-30T17:02:35.576Z,3.70
2023-08-30T17:04:07.406Z,3.57
2023-08-30T17:05:40.997Z,3.93
2023-08-30T17:07:13.030Z,3.87
2023-08-30T17:08:44.857Z,3.23
2023-08-30T17:10:16.688Z,2.97
2023-08-30T17:11:48.486Z,3.03
2023-08-30T17:13:20.226Z,4.63
2023-08-30T17:14:52.023Z,2.90
2023-08-30T17:16:24.683Z,3.37
2023-08-30T17:17:56.571Z,6.30
2023-08-30T17:19:28.630Z,4.17
2023-08-30T17:21:00.445Z,7.30
2023-08-30T17:22:32.589Z,3.77
2023-08-30T17:24:04.666Z,5.87
2023-08-30T17:25:36.832Z,2.50
2023-08-30T17:27:10.589Z,4.37
2023-08-30T17:28:42.523Z,6.67
2023-08-30T17:30:14.886Z,2.77
2023-08-30T17:31:47.267Z,6.17
2023-08-30T17:33:19.441Z,5.57
2023-08-30T17:34:51.413Z,7.97
2023-08-30T17:36:23.162Z,4.80
2023-08-30T17:37:54.889Z,6.17
2023-08-30T17:39:26.944Z,8.50
2023-08-30T17:40:58.919Z,3.73
2023-08-30T17:42:30.690Z,4.57
2023-08-30T17:44:02.679Z,5.97
2023-08-30T17:45:34.960Z,4.43
2023-08-30T17:47:06.837Z,2.90
2023-08-30T17:48:40.261Z,6.70
2023-08-30T17:50:12.253Z,5.20
2023-08-30T17:51:44.097Z,7.77
2023-08-30T17:53:17.852Z,8.17
2023-08-30T17:54:49.682Z,5.50
2023-08-30T17:56:23.386Z,5.23
2023-08-30T17:57:56.906Z,9.27
2023-08-30T17:59:28.659Z,8.17
2023-08-30T18:01:00.718Z,5.37
2023-08-30T18:02:32.640Z,4.03
2023-08-30T18:04:05.487Z,3.90
2023-08-30T18:05:37.546Z,5.57
2023-08-30T18:07:09.636Z,3.63
2023-08-30T18:08:45.445Z,6.33
2023-08-30T18:10:17.634Z,7.10
2023-08-30T18:11:49.401Z,4.60
2023-08-30T18:13:22.656Z,7.27
2023-08-30T18:14:54.412Z,5.03
2023-08-30T18:16:26.152Z,7.83
2023-08-30T18:17:57.889Z,4.80
2023-08-30T18:19:29.821Z,3.97
2023-08-30T18:21:04.972Z,5.60
2023-08-30T18:22:36.924Z,8.77
2023-08-30T18:24:13.407Z,5.70
2023-08-30T18:25:45.258Z,5.63
2023-08-30T18:27:18.399Z,10.13
2023-08-30T18:28:50.312Z,6.90
2023-08-30T18:30:22.431Z,7.13
2023-08-30T18:31:54.236Z,6.83
2023-08-30T18:33:26.259Z,13.00
2023-08-30T18:35:01.066Z,4.10
2023-08-30T18:36:33.405Z,8.00
2023-08-30T18:38:05.620Z,9.83
2023-08-30T18:39:37.418Z,9.83
2023-08-30T18:41:16.853Z,6.40
2023-08-30T18:42:51.999Z,5.10
2023-08-30T18:44:27.465Z,13.70
2023-08-30T18:46:04.351Z,16.70
2023-08-30T18:47:37.576Z,12.10
2023-08-30T18:49:09.410Z,7.83
2023-08-30T18:50:43.281Z,12.20
2023-08-30T18:52:15.124Z,4.40
2023-08-30T18:53:46.960Z,11.33
2023-08-30T18:55:18.987Z,4.57
2023-08-30T18:56:51.139Z,5.10
2023-08-30T18:58:22.938Z,4.23
2023-08-30T18:59:55.004Z,3.23
2023-08-30T19:01:31.703Z,3.37
2023-08-30T19:03:04.415Z,6.90
2023-08-30T19:04:36.248Z,4.40
2023-08-30T19:06:08.236Z,7.43
2023-08-30T19:07:40.039Z,3.43
2023-08-30T19:09:11.800Z,4.20
2023-08-30T19:10:44.662Z,5.33
2023-08-30T19:12:19.522Z,8.87
2023-08-30T19:13:53.291Z,10.63
2023-08-30T19:15:25.066Z,7.00
2023-08-30T19:16:56.931Z,3.57
2023-08-30T19:18:30.109Z,5.23
2023-08-30T19:20:02.141Z,6.93
2023-08-30T19:21:34.205Z,3.93
2023-08-30T19:23:06.122Z,3.43
2023-08-30T19:24:38.018Z,5.00
2023-08-30T19:26:09.812Z,4.10
2023-08-30T19:27:45.484Z,2.90
2023-08-30T19:29:17.266Z,5.63
2023-08-30T19:30:51.793Z,4.30
2023-08-30T19:32:23.864Z,2.70
2023-08-30T19:33:55.672Z,3.60
2023-08-30T19:35:27.602Z,4.00
2023-08-30T19:36:59.543Z,5.07
2023-08-30T19:38:31.464Z,7.03
2023-08-30T19:40:05.940Z,6.70
2023-08-30T19:41:37.840Z,4.23
2023-08-30T19:43:09.852Z,6.03
2023-08-30T19:44:41.843Z,3.33
2023-08-30T19:46:13.665Z,3.33
2023-08-30T19:47:45.530Z,4.57
2023-08-30T19:49:19.324Z,2.47
2023-08-30T19:50:54.489Z,8.87
2023-08-30T19:52:27.186Z,4.50
2023-08-30T19:53:58.999Z,8.07
2023-08-30T19:55:32.764Z,8.83
2023-08-30T19:57:04.715Z,2.43
2023-08-30T19:58:36.480Z,7.17
2023-08-30T20:00:11.780Z,11.50
2023-08-30T20:01:46.548Z,5.90
2023-08-30T20:03:19.423Z,5.13
2023-08-30T20:04:53.029Z,4.90
2023-08-30T20:06:24.959Z,3.70
2023-08-30T20:07:57.258Z,3.17
2023-08-30T20:09:29.407Z,5.93
2023-08-30T20:11:04.339Z,5.07
2023-08-30T20:12:36.257Z,5.50
2023-08-30T20:14:08.038Z,5.90
2023-08-30T20:15:43.959Z,3.40
2023-08-30T20:17:15.739Z,4.63
2023-08-30T20:18:47.602Z,3.17
2023-08-30T20:20:19.391Z,3.80
2023-08-30T20:21:51.124Z,6.57
2023-08-30T20:23:23.902Z,9.03
2023-08-30T20:24:57.156Z,2.80
2023-08-30T20:26:28.934Z,3.07
2023-08-30T20:28:03.336Z,3.00
2023-08-30T20:29:35.097Z,6.47
2023-08-30T20:31:08.757Z,3.30
2023-08-30T20:32:40.675Z,4.47
2023-08-30T20:34:15.217Z,3.10
2023-08-30T20:35:47.024Z,6.03
2023-08-30T20:37:18.762Z,6.57
2023-08-30T20:38:50.526Z,4.53
2023-08-30T20:40:22.344Z,5.13
2023-08-30T20:41:55.626Z,4.27
2023-08-30T20:43:27.556Z,8.57
2023-08-30T20:45:00.297Z,2.17
2023-08-30T20:46:32.056Z,5.73
2023-08-30T20:48:05.300Z,12.40
2023-08-30T20:49:37.163Z,5.43
2023-08-30T20:51:08.987Z,5.63
2023-08-30T20:52:40.937Z,2.93
2023-08-30T20:54:12.772Z,5.47
2023-08-30T20:55:45.303Z,4.87
2023-08-30T20:57:17.148Z,5.00
2023-08-30T20:58:50.205Z,6.83
2023-08-30T21:00:22.421Z,6.03
2023-08-30T21:01:54.272Z,3.93
2023-08-30T21:03:26.270Z,5.43
2023-08-30T21:04:58.216Z,6.43
2023-08-30T21:06:29.977Z,6.53
2023-08-30T21:08:02.841Z,6.73
2023-08-30T21:09:34.662Z,6.60
2023-08-30T21:11:08.534Z,3.43
2023-08-30T21:12:41.832Z,7.13
2023-08-30T21:14:15.879Z,4.93
2023-08-30T21:15:48.014Z,5.83
2023-08-30T21:17:20.006Z,5.77
2023-08-30T21:18:51.996Z,5.07
2023-08-30T21:20:23.838Z,5.77
2023-08-30T21:21:55.583Z,5.17
2023-08-30T21:23:28.023Z,2.77
2023-08-30T21:25:00.915Z,5.33
2023-08-30T21:26:32.883Z,11.17
2023-08-30T21:28:05.554Z,3.93
2023-08-30T21:29:37.470Z,8.10
2023-08-30T21:31:09.249Z,3.43
2023-08-30T21:32:42.182Z,5.87
2023-08-30T21:34:14.242Z,5.80
2023-08-30T21:35:47.290Z,3.00
2023-08-30T21:37:19.098Z,2.60
2023-08-30T21:38:50.886Z,5.23
2023-08-30T21:40:22.637Z,6.30
2023-08-30T21:41:54.418Z,4.50
2023-08-30T21:43:26.251Z,3.93
2023-08-30T21:44:58.000Z,4.50
2023-08-30T21:46:30.431Z,5.53
2023-08-30T21:48:02.235Z,3.07
2023-08-30T21:49:34.047Z,3.00
2023-08-30T21:51:06.012Z,4.03
2023-08-30T21:52:37.926Z,3.80
2023-08-30T21:54:09.788Z,8.67
2023-08-30T21:55:41.826Z,3.23
2023-08-30T21:57:13.576Z,6.20
2023-08-30T21:58:45.350Z,5.23
2023-08-30T22:00:17.344Z,2.60
2023-08-30T22:01:49.190Z,4.47
2023-08-30T22:03:21.271Z,3.00
2023-08-30T22:04:53.096Z,4.83
2023-08-30T22:06:24.905Z,7.30
2023-08-30T22:07:56.791Z,6.90
2023-08-30T22:09:28.614Z,4.30
2023-08-30T22:11:00.581Z,12.43
2023-08-30T22:12:32.353Z,14.43
2023-08-30T22:14:07.630Z,3.77
2023-08-30T22:15:41.534Z,4.00
2023-08-30T22:17:13.306Z,5.40
2023-08-30T22:18:45.137Z,4.60
2023-08-30T22:20:19.306Z,5.60
2023-08-30T22:21:51.045Z,3.90
2023-08-30T22:23:23.008Z,5.20
2023-08-30T22:24:55.023Z,5.73
2023-08-30T22:26:27.214Z,4.03
2023-08-30T22:28:01.046Z,8.47
2023-08-30T22:29:32.852Z,5.53
2023-08-30T22:31:04.696Z,5.40
2023-08-30T22:32:37.008Z,2.63
2023-08-30T22:34:08.845Z,4.27
2023-08-30T22:35:40.655Z,4.60
2023-08-30T22:37:12.408Z,9.53
2023-08-30T22:38:44.259Z,6.30
2023-08-30T22:40:16.075Z,5.70
2023-08-30T22:41:47.903Z,4.63
2023-08-30T22:43:21.568Z,6.27
2023-08-30T22:44:53.423Z,4.80
2023-08-30T22:46:25.600Z,6.87
2023-08-30T22:47:57.788Z,5.50
2023-08-30T22:49:29.623Z,6.00
2023-08-30T22:51:04.638Z,5.50
2023-08-30T22:52:36.973Z,4.57
2023-08-30T22:54:09.043Z,4.53
2023-08-30T22:55:44.435Z,4.00
2023-08-30T22:57:16.282Z,7.23
2023-08-30T22:58:48.146Z,2.00
2023-08-30T23:00:20.022Z,6.73
2023-08-30T23:01:51.822Z,8.87
2023-08-30T23:03:23.662Z,5.50
2023-08-30T23:04:55.520Z,9.00
2023-08-30T23:06:27.249Z,9.90
2023-08-30T23:07:59.265Z,6.03
2023-08-30T23:09:31.357Z,6.87
2023-08-30T23:11:07.478Z,7.67
2023-08-30T23:12:39.388Z,3.63
2023-08-30T23:14:12.400Z,6.10
2023-08-30T23:15:44.148Z,7.90
2023-08-30T23:17:15.933Z,8.87
2023-08-30T23:18:47.764Z,6.60
2023-08-30T23:20:19.764Z,4.77
2023-08-30T23:21:51.609Z,5.63
2023-08-30T23:23:23.578Z,9.63
2023-08-30T23:24:55.373Z,4.57
2023-08-30T23:26:27.906Z,5.10
2023-08-30T23:28:00.783Z,5.57
2023-08-30T23:29:32.671Z,4.37
2023-08-30T23:31:07.104Z,2.90
2023-08-30T23:32:39.087Z,4.00
2023-08-30T23:34:11.193Z,3.23
2023-08-30T23:35:42.953Z,4.80
2023-08-30T23:37:14.824Z,11.93
2023-08-30T23:38:47.707Z,4.47
2023-08-30T23:40:22.204Z,2.57
2023-08-30T23:41:56.197Z,3.07
2023-08-30T23:43:28.786Z,6.13
2023-08-30T23:45:00.511Z,5.60
2023-08-30T23:46:32.593Z,7.27
2023-08-30T23:48:04.728Z,7.73
2023-08-30T23:49:36.518Z,5.97
2023-08-30T23:51:09.303Z,2.73
2023-08-30T23:52:41.027Z,8.23
2023-08-30T23:54:12.808Z,4.47
2023-08-30T23:55:48.635Z,2.73
2023-08-30T23:57:20.391Z,6.77
2023-08-30T23:58:52.167Z,5.70
